Andover, Virginia
Current Conditions -  °F | °C
As of 2:15 PM on Friday 31 Oct 2014 (Local Time) from KLNP Reporting Station
Moderate Rain Moderate Rain  
Wind Chill: 40°   Ceiling: 2000
Heat Index: 43°   Visibility: 10mi
Dew Point: 36°   Wind: 5mph
Humidity: 76%   Direction: 260°W
Pressure: 29.87"   Gusts: NA
Location:  36.92°N, 82.8°W
Report Text: KLNP 311815Z AUTO 26004KT 10SM RA BKN020 OVC031 06/02 A2987 RMK AO2
Loading
Personal Weather Stations






























Interactive Weather Map
Tropical Storm Tracking
New forecast layout! Learn more

10-Day Weather Forecast

Advertisements
Track Severe Weather on mobile